Pride Of Kent — MQCJ2 — position and weather

sailwx.info

Track history (hours):
 
Tides and Currents Weather Stations Pressure Air Temp Water Temp Dewpoint Dewpoint Depression Visibility Wind Speed Wind Dir Waves Ship Positions

Pride Of Kent

Operator: P & O Ferries

Last reported at 2014-Nov-28 12:33 UTC. Time now 2014-Nov-28 13:26 UTC.
Position N 50°58' E 001°51'.

Length 180 m; draft 6 m.

Type: Passenger vessel. MMSI: 232009000.

Date/timePositionNaut miles runAvg speedWind from/ knotsBaromVisibWave heightAir tempDewpointWater temp
2014-Nov-28 12:33N 50°58' E 001°51'1414.1
2014-Nov-28 11:33N 51°02' E 001°29'8 6.4
2014-Nov-28 10:17N 51°07' E 001°20'810.5
2014-Nov-28 09:34N 51°05' E 001°31'1413.9
2014-Nov-28 08:34N 50°58' E 001°51'3 2.7
2014-Nov-28 07:34N 50°58' E 001°47'1918.1
2014-Nov-28 06:32N 51°07' E 001°21'7 3.3
2014-Nov-28 04:33N 51°05' E 001°31'1414.4
2014-Nov-28 03:33N 50°58' E 001°51'0 0.3
2014-Nov-28 02:32N 50°58' E 001°51'1010.7
2014-Nov-28 01:33N 50°59' E 001°35'8 3.8
2014-Nov-27 23:34N 51°06' E 001°29'1514.8
2014-Nov-27 22:33N 50°58' E 001°49'1 1.5
2014-Nov-27 21:33N 50°58' E 001°51'1515.0
2014-Nov-27 20:33N 51°04' E 001°30'7 5.7
2014-Nov-27 19:20N 51°07' E 001°20'1215.4
2014-Nov-27 18:34N 51°01' E 001°37'10 9.4
2014-Nov-27 17:32N 50°58' E 001°51'1010.2
2014-Nov-27 16:34N 50°58' E 001°35'12 6.0
2014-Nov-27 14:34N 51°07' E 001°23'1817.6
2014-Nov-27 13:34N 50°58' E 001°47'2 2.2
2014-Nov-27 12:33N 50°58' E 001°51'1616.5
2014-Nov-27 11:34N 51°04' E 001°27'5 5.3
2014-Nov-27 10:33N 51°07' E 001°20'1515.5
2014-Nov-27 09:33N 50°59' E 001°40'7 6.8
2014-Nov-27 08:33N 50°58' E 001°51'7 7.3
2014-Nov-27 07:33N 50°58' E 001°39'11 3.7
2014-Nov-27 04:33N 51°06' E 001°27'1717.4
2014-Nov-27 03:34N 50°58' E 001°51'0 0.1
2014-Nov-27 02:33N 50°58' E 001°51'1413.6
2014-Nov-27 01:33N 50°59' E 001°30'8 3.8
2014-Nov-26 23:33N 51°06' E 001°31'1514.6
2014-Nov-26 22:33N 50°58' E 001°50'1 0.7
2014-Nov-26 21:33N 50°58' E 001°51'1414.3
2014-Nov-26 20:33N 51°03' E 001°30'8 5.3
2014-Nov-26 19:06N 51°07' E 001°20'815.1
2014-Nov-26 18:33N 51°04' E 001°31'1312.2
2014-Nov-26 17:27N 50°58' E 001°51'7 7.7
2014-Nov-26 16:34N 50°59' E 001°40'15 7.3
2014-Nov-26 14:33N 51°07' E 001°21'1818.2
2014-Nov-26 13:33N 50°58' E 001°46'3 3.0
2014-Nov-26 12:26N 50°58' E 001°51'1517.2
2014-Nov-26 11:34N 51°03' E 001°28'7 5.2
2014-Nov-26 10:16N 51°07' E 001°20'1116.2
2014-Nov-26 09:33N 51°02' E 001°36'1010.1
2014-Nov-26 08:33N 50°58' E 001°51'6 6.1
2014-Nov-26 07:34N 50°58' E 001°41'1613.2
2014-Nov-26 06:21N 51°07' E 001°20'0 0.2
2014-Nov-26 05:12N 51°07' E 001°20'812.0
2014-Nov-26 04:34N 51°05' E 001°32'1413.7
2014-Nov-26 03:34N 50°58' E 001°51'1 0.5
2014-Nov-26 02:34N 50°58' E 001°51'8 8.4
2014-Nov-26 01:34N 50°59' E 001°38'9 4.7
2014-Nov-25 23:34N 51°06' E 001°30'1615.7
2014-Nov-25 22:33N 50°58' E 001°51'1 0.7
2014-Nov-25 21:33N 50°58' E 001°50'1616.0
2014-Nov-25 20:34N 51°05' E 001°27'5 3.6
2014-Nov-25 19:12N 51°07' E 001°20'1015.0
2014-Nov-25 18:34N 51°04' E 001°35'1212.0
2014-Nov-25 17:33N 50°58' E 001°51'4 4.3
2014-Nov-25 16:33N 50°58' E 001°44'17 8.7
2014-Nov-25 14:33N 51°07' E 001°21'1818.1
2014-Nov-25 13:34N 50°58' E 001°46'3 3.2
2014-Nov-25 12:32N 50°58' E 001°51'1414.7
2014-Nov-25 11:33N 51°01' E 001°29'8 6.2
2014-Nov-25 10:14N 51°07' E 001°20'914.0
2014-Nov-25 09:34N 51°03' E 001°34'1212.0
2014-Nov-25 08:33N 50°58' E 001°51'5 4.9
2014-Nov-25 07:33N 50°58' E 001°43'1717.2
2014-Nov-25 06:33N 51°07' E 001°20'6 3.1
2014-Nov-25 04:34N 51°06' E 001°30'1414.1
2014-Nov-25 03:33N 50°58' E 001°49'2 1.6
2014-Nov-25 02:33N 50°58' E 001°51'1211.7
2014-Nov-25 01:34N 50°59' E 001°33'1211.2
2014-Nov-25 00:32N 51°07' E 001°20'5 5.5
2014-Nov-24 23:34N 51°06' E 001°28'1616.3
2014-Nov-24 22:34N 50°58' E 001°51'0 0.1
2014-Nov-24 21:34N 50°58' E 001°51'1414.2
2014-Nov-24 20:33N 51°02' E 001°29'8 8.0
2014-Nov-24 19:32N 51°07' E 001°20'1110.9
2014-Nov-24 18:33N 51°04' E 001°36'1111.2
2014-Nov-24 17:34N 50°58' E 001°51'4 3.8
2014-Nov-24 16:34N 50°58' E 001°45'1818.3
2014-Nov-24 15:33N 51°07' E 001°20'0 0.2
2014-Nov-24 14:33N 51°07' E 001°20'1717.3
2014-Nov-24 13:33N 50°59' E 001°44'4 4.2
2014-Nov-24 12:32N 50°58' E 001°51'1313.4
2014-Nov-24 11:33N 51°02' E 001°31'9 7.5
2014-Nov-24 10:22N 51°07' E 001°20'1113.1
2014-Nov-24 09:34N 51°03' E 001°35'1111.0
2014-Nov-24 08:33N 50°58' E 001°51'3 3.5
2014-Nov-24 07:34N 50°58' E 001°45'1817.9
2014-Nov-24 06:33N 51°07' E 001°21'1 0.5
2014-Nov-24 05:04N 51°07' E 001°20'612.1
2014-Nov-24 04:33N 51°06' E 001°30'1515.4
2014-Nov-24 03:33N 50°58' E 001°51'0 0.2
2014-Nov-24 02:10N 50°58' E 001°51'812.5
2014-Nov-24 01:33N 50°58' E 001°39'1510.0
2014-Nov-24 00:03N 51°07' E 001°20'611.2
2014-Nov-23 23:34N 51°07' E 001°29'1616.0
2014-Nov-23 22:33N 50°58' E 001°51'0 0.5
2014-Nov-23 21:32N 50°58' E 001°51'1515.3
2014-Nov-23 20:34N 51°00' E 001°28'8 7.0
2014-Nov-23 19:20N 51°07' E 001°20'1012.3
2014-Nov-23 18:34N 51°03' E 001°33'1211.8
2014-Nov-23 17:32N 50°58' E 001°51'3 3.3
2014-Nov-23 16:33N 50°58' E 001°46'1917.4
2014-Nov-23 15:29N 51°07' E 001°20'1 0.7
2014-Nov-23 14:33N 51°07' E 001°21'1717.3
2014-Nov-23 13:34N 50°58' E 001°45'4 3.4
2014-Nov-23 12:22N 50°58' E 001°51'1416.9
2014-Nov-23 11:34N 51°02' E 001°30'8 6.9
2014-Nov-23 10:22N 51°07' E 001°20'1215.0
2014-Nov-23 09:34N 51°01' E 001°37'9 9.5
2014-Nov-23 08:33N 50°58' E 001°51'1010.5
2014-Nov-23 07:33N 50°59' E 001°34'12 5.4
2014-Nov-23 05:16N 51°07' E 001°20'1115.4
2014-Nov-23 04:34N 51°02' E 001°35'1110.9
2014-Nov-23 03:33N 50°58' E 001°51'7 6.7
2014-Nov-23 02:33N 50°58' E 001°41'1610.8
2014-Nov-23 01:05N 51°07' E 001°20'3 5.4
2014-Nov-23 00:33N 51°07' E 001°24'1615.9
2014-Nov-22 23:33N 50°58' E 001°46'3 2.8
2014-Nov-22 22:22N 50°58' E 001°51'1113.5
2014-Nov-22 21:34N 51°00' E 001°34'7 3.3
2014-Nov-22 19:33N 51°06' E 001°28'1716.5
2014-Nov-22 18:33N 50°58' E 001°51'0 0.0
2014-Nov-22 17:33N 50°58' E 001°51'1211.8
2014-Nov-22 16:34N 51°02' E 001°33'10 8.7
2014-Nov-22 15:24N 51°07' E 001°20'6 7.0
2014-Nov-22 14:34N 51°05' E 001°29'1615.6
2014-Nov-22 13:34N 50°58' E 001°51'2 2.2
2014-Nov-22 12:34N 50°58' E 001°48'1919.0
2014-Nov-22 11:33N 51°07' E 001°21'0 0.4
2014-Nov-22 10:33N 51°07' E 001°20'1716.8
2014-Nov-22 09:34N 50°59' E 001°43'5 5.1
2014-Nov-22 08:34N 50°58' E 001°51'9 9.0
2014-Nov-22 07:33N 50°58' E 001°37'14 6.6
2014-Nov-22 05:27N 51°07' E 001°20'1112.7
2014-Nov-22 04:33N 51°04' E 001°37'1110.3
2014-Nov-22 03:32N 50°58' E 001°51'8 8.0
2014-Nov-22 02:33N 50°58' E 001°39'1512.4
2014-Nov-22 01:20N 51°07' E 001°20'1 0.7
2014-Nov-22 00:34N 51°07' E 001°21'1717.3
2014-Nov-21 23:34N 50°59' E 001°45'4 4.5
2014-Nov-21 22:33N 50°58' E 001°52'1615.5
2014-Nov-21 21:33N 51°00' E 001°27'8 5.9
2014-Nov-21 20:07N 51°07' E 001°20'713.2
2014-Nov-21 19:34N 51°05' E 001°31'1414.2
2014-Nov-21 18:33N 50°58' E 001°51'0 0.2
2014-Nov-21 17:34N 50°58' E 001°51'1212.4
2014-Nov-21 16:33N 51°02' E 001°32'2 1.1
2014-Nov-21 14:34N 51°04' E 001°30'1414.0
2014-Nov-21 13:33N 50°58' E 001°51'6 6.1
2014-Nov-21 12:33N 50°58' E 001°41'15 7.5
2014-Nov-21 10:33N 51°07' E 001°22'1818.3
2014-Nov-21 09:33N 50°58' E 001°48'2 2.0
2014-Nov-21 08:31N 50°58' E 001°51'1212.5
2014-Nov-21 07:34N 51°00' E 001°32'7 3.6
2014-Nov-21 05:33N 51°06' E 001°26'1717.4
2014-Nov-21 04:33N 50°58' E 001°51'0 0.1
2014-Nov-21 03:33N 50°58' E 001°51'1615.7
2014-Nov-21 02:33N 51°03' E 001°27'6 5.3
2014-Nov-21 01:24N 51°07' E 001°20'5 6.2
2014-Nov-21 00:33N 51°06' E 001°28'1616.0
2014-Nov-20 23:32N 50°58' E 001°51'0 0.4
2014-Nov-20 22:33N 50°58' E 001°52'6 5.7
2014-Nov-20 21:28N 50°58' E 001°42'1516.3
2014-Nov-20 20:33N 51°06' E 001°23'2 1.6
2014-Nov-20 19:22N 51°07' E 001°20'1012.0
2014-Nov-20 18:33N 51°04' E 001°35'1211.7
2014-Nov-20 17:32N 50°58' E 001°51'5 4.7
2014-Nov-20 16:33N 50°58' E 001°44'1817.5
2014-Nov-20 15:33N 51°07' E 001°20'0 0.2
2014-Nov-20 14:33N 51°07' E 001°20'1817.9
2014-Nov-20 13:34N 50°58' E 001°44'4 4.0
2014-Nov-20 12:32N 50°58' E 001°51'1414.4
2014-Nov-20 11:33N 51°02' E 001°29'8 6.5
2014-Nov-20 10:20N 51°07' E 001°20'1114.0
2014-Nov-20 09:34N 51°04' E 001°36'11 8.3
2014-Nov-20 08:16N 50°58' E 001°51'5 7.7
2014-Nov-20 07:33N 50°58' E 001°42'12 4.0
2014-Nov-20 04:33N 51°07' E 001°28'1616.3
2014-Nov-20 03:33N 50°58' E 001°51'0 0.4
2014-Nov-20 02:33N 50°58' E 001°51'9 9.3
2014-Nov-20 01:33N 50°59' E 001°36'13 8.8
2014-Nov-20 00:04N 51°07' E 001°20'611.6
2014-Nov-19 23:33N 51°07' E 001°30'1615.9
2014-Nov-19 22:33N 50°58' E 001°51'1 0.8
2014-Nov-19 21:33N 50°58' E 001°50'1817.8
2014-Nov-19 20:33N 51°05' E 001°24'3 2.8
2014-Nov-19 19:27N 51°07' E 001°20'1415.4
2014-Nov-19 18:34N 51°01' E 001°40'8 7.8
2014-Nov-19 17:33N 50°58' E 001°51'7 7.5
2014-Nov-19 16:34N 50°59' E 001°39'14 7.1
2014-Nov-19 14:33N 51°07' E 001°21'1919.3
2014-Nov-19 13:34N 50°58' E 001°48'2 1.8
2014-Nov-19 12:33N 50°58' E 001°51'1313.1
2014-Nov-19 11:33N 51°02' E 001°31'9 6.1
2014-Nov-19 10:08N 51°07' E 001°20'814.0
2014-Nov-19 09:34N 51°04' E 001°32'14 9.9
2014-Nov-19 08:12N 50°58' E 001°51'4 5.8
2014-Nov-19 07:33N 50°58' E 001°45'1817.8
2014-Nov-19 06:33N 51°07' E 001°21'1 0.4
2014-Nov-19 05:11N 51°07' E 001°20'812.4
2014-Nov-19 04:34N 51°05' E 001°31'1414.1
2014-Nov-19 03:33N 50°58' E 001°51'0 0.1
2014-Nov-19 02:33N 50°58' E 001°51'1111.5
2014-Nov-19 01:33N 51°01' E 001°34'11 7.5
2014-Nov-19 00:08N 51°07' E 001°20'712.2
2014-Nov-18 23:34N 51°05' E 001°31'1514.6
2014-Nov-18 22:33N 50°58' E 001°51'0 0.4
2014-Nov-18 21:33N 50°58' E 001°50'1716.9
2014-Nov-18 20:33N 51°05' E 001°26'4 3.6
2014-Nov-18 19:23N 51°07' E 001°20'1316.3
2014-Nov-18 18:33N 51°01' E 001°39'8 8.1
2014-Nov-18 17:33N 50°58' E 001°51'8 8.1
2014-Nov-18 16:34N 50°58' E 001°38'15 7.4
2014-Nov-18 14:32N 51°07' E 001°20'1717.8
2014-Nov-18 13:34N 50°59' E 001°44'4 4.4
2014-Nov-18 12:34N 50°58' E 001°51'  
Track history (hours):
 
Tides and Currents Weather Stations Pressure Air Temp Water Temp Dewpoint Dewpoint Depression Visibility Wind Speed Wind Dir Waves Ship Positions

Pride Of Kent

Operator: P & O Ferries

Last reported at 2014-Nov-28 12:33 UTC. Time now 2014-Nov-28 13:26 UTC.
Position N 50°58' E 001°51'.

Length 180 m; draft 6 m.

Type: Passenger vessel. MMSI: 232009000.

Date/timePositionNaut miles runAvg speedWind from/ knotsBaromVisibWave heightAir tempDewpointWater temp
2014-Nov-28 12:33N 50°58' E 001°51'1414.1
2014-Nov-28 11:33N 51°02' E 001°29'8 6.4
2014-Nov-28 10:17N 51°07' E 001°20'810.5
2014-Nov-28 09:34N 51°05' E 001°31'1413.9
2014-Nov-28 08:34N 50°58' E 001°51'3 2.7
2014-Nov-28 07:34N 50°58' E 001°47'1918.1
2014-Nov-28 06:32N 51°07' E 001°21'7 3.3
2014-Nov-28 04:33N 51°05' E 001°31'1414.4
2014-Nov-28 03:33N 50°58' E 001°51'0 0.3
2014-Nov-28 02:32N 50°58' E 001°51'1010.7
2014-Nov-28 01:33N 50°59' E 001°35'8 3.8
2014-Nov-27 23:34N 51°06' E 001°29'1514.8
2014-Nov-27 22:33N 50°58' E 001°49'1 1.5
2014-Nov-27 21:33N 50°58' E 001°51'1515.0
2014-Nov-27 20:33N 51°04' E 001°30'7 5.7
2014-Nov-27 19:20N 51°07' E 001°20'1215.4
2014-Nov-27 18:34N 51°01' E 001°37'10 9.4
2014-Nov-27 17:32N 50°58' E 001°51'1010.2
2014-Nov-27 16:34N 50°58' E 001°35'12 6.0
2014-Nov-27 14:34N 51°07' E 001°23'1817.6
2014-Nov-27 13:34N 50°58' E 001°47'2 2.2
2014-Nov-27 12:33N 50°58' E 001°51'1616.5
2014-Nov-27 11:34N 51°04' E 001°27'5 5.3
2014-Nov-27 10:33N 51°07' E 001°20'1515.5
2014-Nov-27 09:33N 50°59' E 001°40'7 6.8
2014-Nov-27 08:33N 50°58' E 001°51'7 7.3
2014-Nov-27 07:33N 50°58' E 001°39'11 3.7
2014-Nov-27 04:33N 51°06' E 001°27'1717.4
2014-Nov-27 03:34N 50°58' E 001°51'0 0.1
2014-Nov-27 02:33N 50°58' E 001°51'1413.6
2014-Nov-27 01:33N 50°59' E 001°30'8 3.8
2014-Nov-26 23:33N 51°06' E 001°31'1514.6
2014-Nov-26 22:33N 50°58' E 001°50'1 0.7
2014-Nov-26 21:33N 50°58' E 001°51'1414.3
2014-Nov-26 20:33N 51°03' E 001°30'8 5.3
2014-Nov-26 19:06N 51°07' E 001°20'815.1
2014-Nov-26 18:33N 51°04' E 001°31'1312.2
2014-Nov-26 17:27N 50°58' E 001°51'7 7.7
2014-Nov-26 16:34N 50°59' E 001°40'15 7.3
2014-Nov-26 14:33N 51°07' E 001°21'1818.2
2014-Nov-26 13:33N 50°58' E 001°46'3 3.0
2014-Nov-26 12:26N 50°58' E 001°51'1517.2
2014-Nov-26 11:34N 51°03' E 001°28'7 5.2
2014-Nov-26 10:16N 51°07' E 001°20'1116.2
2014-Nov-26 09:33N 51°02' E 001°36'1010.1
2014-Nov-26 08:33N 50°58' E 001°51'6 6.1
2014-Nov-26 07:34N 50°58' E 001°41'1613.2
2014-Nov-26 06:21N 51°07' E 001°20'0 0.2
2014-Nov-26 05:12N 51°07' E 001°20'812.0
2014-Nov-26 04:34N 51°05' E 001°32'1413.7
2014-Nov-26 03:34N 50°58' E 001°51'1 0.5
2014-Nov-26 02:34N 50°58' E 001°51'8 8.4
2014-Nov-26 01:34N 50°59' E 001°38'9 4.7
2014-Nov-25 23:34N 51°06' E 001°30'1615.7
2014-Nov-25 22:33N 50°58' E 001°51'1 0.7
2014-Nov-25 21:33N 50°58' E 001°50'1616.0
2014-Nov-25 20:34N 51°05' E 001°27'5 3.6
2014-Nov-25 19:12N 51°07' E 001°20'1015.0
2014-Nov-25 18:34N 51°04' E 001°35'1212.0
2014-Nov-25 17:33N 50°58' E 001°51'4 4.3
2014-Nov-25 16:33N 50°58' E 001°44'17 8.7
2014-Nov-25 14:33N 51°07' E 001°21'1818.1
2014-Nov-25 13:34N 50°58' E 001°46'3 3.2
2014-Nov-25 12:32N 50°58' E 001°51'1414.7
2014-Nov-25 11:33N 51°01' E 001°29'8 6.2
2014-Nov-25 10:14N 51°07' E 001°20'914.0
2014-Nov-25 09:34N 51°03' E 001°34'1212.0
2014-Nov-25 08:33N 50°58' E 001°51'5 4.9
2014-Nov-25 07:33N 50°58' E 001°43'1717.2
2014-Nov-25 06:33N 51°07' E 001°20'6 3.1
2014-Nov-25 04:34N 51°06' E 001°30'1414.1
2014-Nov-25 03:33N 50°58' E 001°49'2 1.6
2014-Nov-25 02:33N 50°58' E 001°51'1211.7
2014-Nov-25 01:34N 50°59' E 001°33'1211.2
2014-Nov-25 00:32N 51°07' E 001°20'5 5.5
2014-Nov-24 23:34N 51°06' E 001°28'1616.3
2014-Nov-24 22:34N 50°58' E 001°51'0 0.1
2014-Nov-24 21:34N 50°58' E 001°51'1414.2
2014-Nov-24 20:33N 51°02' E 001°29'8 8.0
2014-Nov-24 19:32N 51°07' E 001°20'1110.9
2014-Nov-24 18:33N 51°04' E 001°36'1111.2
2014-Nov-24 17:34N 50°58' E 001°51'4 3.8
2014-Nov-24 16:34N 50°58' E 001°45'1818.3
2014-Nov-24 15:33N 51°07' E 001°20'0 0.2
2014-Nov-24 14:33N 51°07' E 001°20'1717.3
2014-Nov-24 13:33N 50°59' E 001°44'4 4.2
2014-Nov-24 12:32N 50°58' E 001°51'1313.4
2014-Nov-24 11:33N 51°02' E 001°31'9 7.5
2014-Nov-24 10:22N 51°07' E 001°20'1113.1
2014-Nov-24 09:34N 51°03' E 001°35'1111.0
2014-Nov-24 08:33N 50°58' E 001°51'3 3.5
2014-Nov-24 07:34N 50°58' E 001°45'1817.9
2014-Nov-24 06:33N 51°07' E 001°21'1 0.5
2014-Nov-24 05:04N 51°07' E 001°20'612.1
2014-Nov-24 04:33N 51°06' E 001°30'1515.4
2014-Nov-24 03:33N 50°58' E 001°51'0 0.2
2014-Nov-24 02:10N 50°58' E 001°51'812.5
2014-Nov-24 01:33N 50°58' E 001°39'1510.0
2014-Nov-24 00:03N 51°07' E 001°20'611.2
2014-Nov-23 23:34N 51°07' E 001°29'1616.0
2014-Nov-23 22:33N 50°58' E 001°51'0 0.5
2014-Nov-23 21:32N 50°58' E 001°51'1515.3
2014-Nov-23 20:34N 51°00' E 001°28'8 7.0
2014-Nov-23 19:20N 51°07' E 001°20'1012.3
2014-Nov-23 18:34N 51°03' E 001°33'1211.8
2014-Nov-23 17:32N 50°58' E 001°51'3 3.3
2014-Nov-23 16:33N 50°58' E 001°46'1917.4
2014-Nov-23 15:29N 51°07' E 001°20'1 0.7
2014-Nov-23 14:33N 51°07' E 001°21'1717.3
2014-Nov-23 13:34N 50°58' E 001°45'4 3.4
2014-Nov-23 12:22N 50°58' E 001°51'1416.9
2014-Nov-23 11:34N 51°02' E 001°30'8 6.9
2014-Nov-23 10:22N 51°07' E 001°20'1215.0
2014-Nov-23 09:34N 51°01' E 001°37'9 9.5
2014-Nov-23 08:33N 50°58' E 001°51'1010.5
2014-Nov-23 07:33N 50°59' E 001°34'12 5.4
2014-Nov-23 05:16N 51°07' E 001°20'1115.4
2014-Nov-23 04:34N 51°02' E 001°35'1110.9
2014-Nov-23 03:33N 50°58' E 001°51'7 6.7
2014-Nov-23 02:33N 50°58' E 001°41'1610.8
2014-Nov-23 01:05N 51°07' E 001°20'3 5.4
2014-Nov-23 00:33N 51°07' E 001°24'1615.9
2014-Nov-22 23:33N 50°58' E 001°46'3 2.8
2014-Nov-22 22:22N 50°58' E 001°51'1113.5
2014-Nov-22 21:34N 51°00' E 001°34'7 3.3
2014-Nov-22 19:33N 51°06' E 001°28'1716.5
2014-Nov-22 18:33N 50°58' E 001°51'0 0.0
2014-Nov-22 17:33N 50°58' E 001°51'1211.8
2014-Nov-22 16:34N 51°02' E 001°33'10 8.7
2014-Nov-22 15:24N 51°07' E 001°20'6 7.0
2014-Nov-22 14:34N 51°05' E 001°29'1615.6
2014-Nov-22 13:34N 50°58' E 001°51'2 2.2
2014-Nov-22 12:34N 50°58' E 001°48'1919.0
2014-Nov-22 11:33N 51°07' E 001°21'0 0.4
2014-Nov-22 10:33N 51°07' E 001°20'1716.8
2014-Nov-22 09:34N 50°59' E 001°43'5 5.1
2014-Nov-22 08:34N 50°58' E 001°51'9 9.0
2014-Nov-22 07:33N 50°58' E 001°37'14 6.6
2014-Nov-22 05:27N 51°07' E 001°20'1112.7
2014-Nov-22 04:33N 51°04' E 001°37'1110.3
2014-Nov-22 03:32N 50°58' E 001°51'8 8.0
2014-Nov-22 02:33N 50°58' E 001°39'1512.4
2014-Nov-22 01:20N 51°07' E 001°20'1 0.7
2014-Nov-22 00:34N 51°07' E 001°21'1717.3
2014-Nov-21 23:34N 50°59' E 001°45'4 4.5
2014-Nov-21 22:33N 50°58' E 001°52'1615.5
2014-Nov-21 21:33N 51°00' E 001°27'8 5.9
2014-Nov-21 20:07N 51°07' E 001°20'713.2
2014-Nov-21 19:34N 51°05' E 001°31'1414.2
2014-Nov-21 18:33N 50°58' E 001°51'0 0.2
2014-Nov-21 17:34N 50°58' E 001°51'1212.4
2014-Nov-21 16:33N 51°02' E 001°32'2 1.1
2014-Nov-21 14:34N 51°04' E 001°30'1414.0
2014-Nov-21 13:33N 50°58' E 001°51'6 6.1
2014-Nov-21 12:33N 50°58' E 001°41'15 7.5
2014-Nov-21 10:33N 51°07' E 001°22'1818.3
2014-Nov-21 09:33N 50°58' E 001°48'2 2.0
2014-Nov-21 08:31N 50°58' E 001°51'1212.5
2014-Nov-21 07:34N 51°00' E 001°32'7 3.6
2014-Nov-21 05:33N 51°06' E 001°26'1717.4
2014-Nov-21 04:33N 50°58' E 001°51'0 0.1
2014-Nov-21 03:33N 50°58' E 001°51'1615.7
2014-Nov-21 02:33N 51°03' E 001°27'6 5.3
2014-Nov-21 01:24N 51°07' E 001°20'5 6.2
2014-Nov-21 00:33N 51°06' E 001°28'1616.0
2014-Nov-20 23:32N 50°58' E 001°51'0 0.4
2014-Nov-20 22:33N 50°58' E 001°52'6 5.7
2014-Nov-20 21:28N 50°58' E 001°42'1516.3
2014-Nov-20 20:33N 51°06' E 001°23'2 1.6
2014-Nov-20 19:22N 51°07' E 001°20'1012.0
2014-Nov-20 18:33N 51°04' E 001°35'1211.7
2014-Nov-20 17:32N 50°58' E 001°51'5 4.7
2014-Nov-20 16:33N 50°58' E 001°44'1817.5
2014-Nov-20 15:33N 51°07' E 001°20'0 0.2
2014-Nov-20 14:33N 51°07' E 001°20'1817.9
2014-Nov-20 13:34N 50°58' E 001°44'4 4.0
2014-Nov-20 12:32N 50°58' E 001°51'1414.4
2014-Nov-20 11:33N 51°02' E 001°29'8 6.5
2014-Nov-20 10:20N 51°07' E 001°20'1114.0
2014-Nov-20 09:34N 51°04' E 001°36'11 8.3
2014-Nov-20 08:16N 50°58' E 001°51'5 7.7
2014-Nov-20 07:33N 50°58' E 001°42'12 4.0
2014-Nov-20 04:33N 51°07' E 001°28'1616.3
2014-Nov-20 03:33N 50°58' E 001°51'0 0.4
2014-Nov-20 02:33N 50°58' E 001°51'9 9.3
2014-Nov-20 01:33N 50°59' E 001°36'13 8.8
2014-Nov-20 00:04N 51°07' E 001°20'611.6
2014-Nov-19 23:33N 51°07' E 001°30'1615.9
2014-Nov-19 22:33N 50°58' E 001°51'1 0.8
2014-Nov-19 21:33N 50°58' E 001°50'1817.8
2014-Nov-19 20:33N 51°05' E 001°24'3 2.8
2014-Nov-19 19:27N 51°07' E 001°20'1415.4
2014-Nov-19 18:34N 51°01' E 001°40'8 7.8
2014-Nov-19 17:33N 50°58' E 001°51'7 7.5
2014-Nov-19 16:34N 50°59' E 001°39'14 7.1
2014-Nov-19 14:33N 51°07' E 001°21'1919.3
2014-Nov-19 13:34N 50°58' E 001°48'2 1.8
2014-Nov-19 12:33N 50°58' E 001°51'1313.1
2014-Nov-19 11:33N 51°02' E 001°31'9 6.1
2014-Nov-19 10:08N 51°07' E 001°20'814.0
2014-Nov-19 09:34N 51°04' E 001°32'14 9.9
2014-Nov-19 08:12N 50°58' E 001°51'4 5.8
2014-Nov-19 07:33N 50°58' E 001°45'1817.8
2014-Nov-19 06:33N 51°07' E 001°21'1 0.4
2014-Nov-19 05:11N 51°07' E 001°20'812.4
2014-Nov-19 04:34N 51°05' E 001°31'1414.1
2014-Nov-19 03:33N 50°58' E 001°51'0 0.1
2014-Nov-19 02:33N 50°58' E 001°51'1111.5
2014-Nov-19 01:33N 51°01' E 001°34'11 7.5
2014-Nov-19 00:08N 51°07' E 001°20'712.2
2014-Nov-18 23:34N 51°05' E 001°31'1514.6
2014-Nov-18 22:33N 50°58' E 001°51'0 0.4
2014-Nov-18 21:33N 50°58' E 001°50'1716.9
2014-Nov-18 20:33N 51°05' E 001°26'4 3.6
2014-Nov-18 19:23N 51°07' E 001°20'1316.3
2014-Nov-18 18:33N 51°01' E 001°39'8 8.1
2014-Nov-18 17:33N 50°58' E 001°51'8 8.1
2014-Nov-18 16:34N 50°58' E 001°38'15 7.4
2014-Nov-18 14:32N 51°07' E 001°20'1717.8
2014-Nov-18 13:34N 50°59' E 001°44'4 4.4
2014-Nov-18 12:34N 50°58' E 001°51'  

Dump ship's entire track history